Terminal Aerodrome Forecast
Issued by NWS Los Angeles, CA

Home | Current Version | Previous Version | Text Only | Print | Product List | Glossary On
Versions: 1 2 3 4 5 6 7 8 9 10 11 12 13 14 15 16 17 18 19 20 21 22 23 24 25 26 27 28
000
FTUS46 KLOX 301139
TAFSMX
TAF
KSMX 301139Z 3012/3112 VRB05KT P6SM OVC006
     FM301400 VRB05KT 5SM BR OVC008
     FM301700 29008KT P6SM SCT010
     FM310200 VRB05KT P6SM BKN012
     FM310800 VRB05KT P6SM OVC008=

USA.gov is the U.S. government's official web portal to all federal, state and local government web resources and services.